NKS208 KFLL-KATL
Flight info
| Callsign | NKS208 |
|---|---|
| Flight time | N/A |
| Altitude | 38000 |
| Route | FRSBE2 STYMY Q77 MJAMS/N0438F390 Q77 SHRKS/N0439F380 LAIRI LARZZ JJEDI4 |
| Aircraft | A20N/M-SDE2E3FGHIRWXY/LB1 |
Departure
| Time | 2026-05-03 20:52 |
|---|---|
| Airport | Fort Lauderdale Hollywood International Airport (KFLL) |
Arrival
| Time | N/A |
|---|---|
| Airport | Hartsfield Jackson Atlanta International Airport (KATL) |
| Time | Latitude | Longitude | Altitude | Speed | Heading |
|---|---|---|---|---|---|
| 2026-05-03 20:15 | 26.07287 | -80.14695 | 19 ft | 0 kts | 45° |
| 2026-05-03 20:20 | 26.07279 | -80.14704 | 19 ft | 2 kts | 44° |
| 2026-05-03 20:20 | 26.07267 | -80.14716 | 20 ft | 2 kts | 42° |
| 2026-05-03 20:21 | 26.07254 | -80.14728 | 21 ft | 2 kts | 37° |
| 2026-05-03 20:21 | 26.07241 | -80.14739 | 20 ft | 2 kts | 19° |
| 2026-05-03 20:21 | 26.07226 | -80.14736 | 23 ft | 2 kts | 302° |
| 2026-05-03 20:21 | 26.07224 | -80.14733 | 23 ft | 0 kts | 300° |
| 2026-05-03 20:22 | 26.07226 | -80.14737 | 23 ft | 0 kts | 300° |
| 2026-05-03 20:25 | 26.07222 | -80.14743 | 23 ft | 3 kts | 237° |
| 2026-05-03 20:25 | 26.07200 | -80.14771 | 21 ft | 0 kts | 228° |
| 2026-05-03 20:26 | 26.07196 | -80.14775 | 23 ft | 3 kts | 228° |
| 2026-05-03 20:26 | 26.07173 | -80.14804 | 22 ft | 7 kts | 227° |
| 2026-05-03 20:26 | 26.07154 | -80.14825 | 24 ft | 3 kts | 226° |
| 2026-05-03 20:27 | 26.07135 | -80.14857 | 24 ft | 7 kts | 247° |
| 2026-05-03 20:27 | 26.07150 | -80.14925 | 24 ft | 5 kts | 306° |
| 2026-05-03 20:27 | 26.07166 | -80.14975 | 22 ft | 8 kts | 269° |
| 2026-05-03 20:27 | 26.07164 | -80.14987 | 22 ft | 3 kts | 255° |
| 2026-05-03 20:28 | 26.07151 | -80.15011 | 23 ft | 4 kts | 236° |
| 2026-05-03 20:28 | 26.07128 | -80.15040 | 23 ft | 6 kts | 225° |
| 2026-05-03 20:28 | 26.07092 | -80.15079 | 25 ft | 7 kts | 228° |
| 2026-05-03 20:28 | 26.07110 | -80.15123 | 27 ft | 8 kts | 332° |
| 2026-05-03 20:29 | 26.07172 | -80.15130 | 21 ft | 0 kts | 1° |
| 2026-05-03 20:29 | 26.07178 | -80.15130 | 22 ft | 3 kts | 1° |
| 2026-05-03 20:29 | 26.07224 | -80.15129 | 19 ft | 10 kts | 1° |
| 2026-05-03 20:29 | 26.07289 | -80.15127 | 17 ft | 11 kts | 1° |
| 2026-05-03 20:30 | 26.07376 | -80.15126 | 16 ft | 14 kts | 0° |
| 2026-05-03 20:30 | 26.07471 | -80.15144 | 14 ft | 15 kts | 315° |
| 2026-05-03 20:30 | 26.07490 | -80.15250 | 11 ft | 14 kts | 270° |
| 2026-05-03 20:30 | 26.07491 | -80.15374 | 10 ft | 18 kts | 271° |
| 2026-05-03 20:31 | 26.07492 | -80.15515 | 12 ft | 19 kts | 270° |
| 2026-05-03 20:31 | 26.07492 | -80.15664 | 14 ft | 20 kts | 270° |
| 2026-05-03 20:31 | 26.07494 | -80.15830 | 14 ft | 22 kts | 270° |
| 2026-05-03 20:31 | 26.07494 | -80.16002 | 18 ft | 22 kts | 271° |
| 2026-05-03 20:32 | 26.07495 | -80.16177 | 19 ft | 24 kts | 271° |
| 2026-05-03 20:32 | 26.07496 | -80.16351 | 18 ft | 6 kts | 271° |
| 2026-05-03 20:32 | 26.07496 | -80.16365 | 18 ft | 4 kts | 271° |
| 2026-05-03 20:32 | 26.07497 | -80.16411 | 18 ft | 8 kts | 271° |
| 2026-05-03 20:33 | 26.07497 | -80.16429 | 18 ft | 0 kts | 271° |
| 2026-05-03 20:33 | 26.07497 | -80.16440 | 18 ft | 4 kts | 270° |
| 2026-05-03 20:34 | 26.07497 | -80.16499 | 18 ft | 11 kts | 270° |
| 2026-05-03 20:34 | 26.07497 | -80.16522 | 18 ft | 0 kts | 270° |
| 2026-05-03 20:41 | 26.07497 | -80.16540 | 18 ft | 6 kts | 270° |
| 2026-05-03 20:42 | 26.07497 | -80.16576 | 18 ft | 6 kts | 270° |
| 2026-05-03 20:42 | 26.07500 | -80.16602 | 18 ft | 0 kts | 283° |
| 2026-05-03 20:45 | 26.07501 | -80.16606 | 17 ft | 3 kts | 283° |
| 2026-05-03 20:45 | 26.07537 | -80.16643 | 16 ft | 11 kts | 347° |
| 2026-05-03 20:46 | 26.07579 | -80.16644 | 16 ft | 0 kts | 0° |
| 2026-05-03 20:49 | 26.07601 | -80.16644 | 15 ft | 8 kts | 1° |
| 2026-05-03 20:49 | 26.07685 | -80.16619 | 15 ft | 15 kts | 50° |
| 2026-05-03 20:49 | 26.07698 | -80.16565 | 16 ft | 0 kts | 90° |
| 2026-05-03 20:51 | 26.07698 | -80.16558 | 16 ft | 3 kts | 90° |
| 2026-05-03 20:51 | 26.07697 | -80.16312 | 21 ft | 65 kts | 92° |
| 2026-05-03 20:52 | 26.07694 | -80.15875 | 17 ft | 104 kts | 89° |
| 2026-05-03 20:52 | 26.07694 | -80.14891 | 29 ft | 147 kts | 88° |
| 2026-05-03 20:52 | 26.07681 | -80.13809 | 616 ft | 140 kts | 88° |
| 2026-05-03 20:52 | 26.07689 | -80.12288 | 1156 ft | 153 kts | 88° |
| 2026-05-03 20:53 | 26.07704 | -80.11107 | 1658 ft | 154 kts | 88° |
| 2026-05-03 20:53 | 26.07766 | -80.10301 | 1863 ft | 162 kts | 78° |
| 2026-05-03 20:53 | 26.08113 | -80.09037 | 2102 ft | 181 kts | 64° |
| 2026-05-03 20:53 | 26.09059 | -80.07351 | 2531 ft | 208 kts | 39° |
| 2026-05-03 20:54 | 26.09898 | -80.06761 | 2752 ft | 221 kts | 19° |
| 2026-05-03 20:54 | 26.13092 | -80.05522 | 3711 ft | 265 kts | 17° |
| 2026-05-03 20:54 | 26.14894 | -80.04959 | 3968 ft | 271 kts | 4° |
| 2026-05-03 20:55 | 26.16739 | -80.05091 | 4013 ft | 264 kts | 342° |
| 2026-05-03 20:55 | 26.18481 | -80.05760 | 4022 ft | 267 kts | 338° |
| 2026-05-03 20:55 | 26.20221 | -80.06449 | 4022 ft | 266 kts | 338° |
| 2026-05-03 20:55 | 26.22304 | -80.07829 | 4021 ft | 262 kts | 310° |
| 2026-05-03 20:56 | 26.22965 | -80.08939 | 4015 ft | 258 kts | 292° |
| 2026-05-03 20:56 | 26.23633 | -80.10800 | 4024 ft | 262 kts | 290° |
| 2026-05-03 20:56 | 26.24297 | -80.12684 | 4027 ft | 262 kts | 290° |
| 2026-05-03 20:56 | 26.24968 | -80.14580 | 4227 ft | 264 kts | 290° |
| 2026-05-03 20:57 | 26.25745 | -80.16433 | 5006 ft | 264 kts | 299° |
| 2026-05-03 20:57 | 26.26729 | -80.18142 | 5993 ft | 263 kts | 301° |
| 2026-05-03 20:57 | 26.27719 | -80.19866 | 6846 ft | 265 kts | 300° |
| 2026-05-03 20:57 | 26.29041 | -80.22192 | 7933 ft | 269 kts | 300° |
| 2026-05-03 20:58 | 26.29709 | -80.23368 | 8490 ft | 270 kts | 299° |
| 2026-05-03 20:58 | 26.30715 | -80.25140 | 9328 ft | 272 kts | 299° |
| 2026-05-03 20:58 | 26.31731 | -80.26929 | 10160 ft | 275 kts | 299° |
| 2026-05-03 20:58 | 26.32783 | -80.28787 | 10637 ft | 294 kts | 299° |
| 2026-05-03 20:59 | 26.33913 | -80.30789 | 10947 ft | 318 kts | 299° |
| 2026-05-03 20:59 | 26.35115 | -80.32911 | 11485 ft | 328 kts | 299° |
| 2026-05-03 20:59 | 26.36337 | -80.35059 | 12267 ft | 330 kts | 299° |
| 2026-05-03 20:59 | 26.37569 | -80.37227 | 12976 ft | 334 kts | 299° |
| 2026-05-03 21:00 | 26.38814 | -80.39420 | 13707 ft | 337 kts | 299° |
| 2026-05-03 21:00 | 26.39649 | -80.40893 | 14127 ft | 339 kts | 298° |
| 2026-05-03 21:00 | 26.41332 | -80.43862 | 14964 ft | 342 kts | 298° |
| 2026-05-03 21:00 | 26.42619 | -80.46137 | 15619 ft | 344 kts | 298° |
| 2026-05-03 21:01 | 26.43899 | -80.48400 | 16236 ft | 347 kts | 298° |
| 2026-05-03 21:01 | 26.45188 | -80.50681 | 16822 ft | 350 kts | 298° |
| 2026-05-03 21:01 | 26.46488 | -80.52982 | 17418 ft | 353 kts | 298° |
| 2026-05-03 21:01 | 26.48047 | -80.55128 | 17995 ft | 363 kts | 311° |
| 2026-05-03 21:02 | 26.50134 | -80.56791 | 18557 ft | 378 kts | 327° |
| 2026-05-03 21:02 | 26.52629 | -80.57820 | 19054 ft | 389 kts | 338° |
| 2026-05-03 21:02 | 26.55245 | -80.58639 | 19503 ft | 393 kts | 338° |
| 2026-05-03 21:02 | 26.57884 | -80.59462 | 19974 ft | 396 kts | 338° |
| 2026-05-03 21:03 | 26.60543 | -80.60296 | 20438 ft | 400 kts | 337° |
| 2026-05-03 21:03 | 26.63224 | -80.61143 | 20885 ft | 403 kts | 337° |
| 2026-05-03 21:03 | 26.65928 | -80.62000 | 21346 ft | 406 kts | 337° |
| 2026-05-03 21:03 | 26.68654 | -80.62867 | 21798 ft | 410 kts | 336° |
| 2026-05-03 21:04 | 26.71399 | -80.63741 | 22241 ft | 413 kts | 336° |
| 2026-05-03 21:04 | 26.74170 | -80.64624 | 22691 ft | 417 kts | 336° |
| 2026-05-03 21:04 | 26.76962 | -80.65513 | 23166 ft | 420 kts | 336° |
| 2026-05-03 21:04 | 26.79782 | -80.66413 | 23573 ft | 424 kts | 336° |